Time;durP1;ratioP1;P1;durP2;ratioP2;P2;SDS_P1;SDS_P2;PMS_P1;PMS_P2;Temp;Humidity;BMP_temperature;BMP_pressure;BME280_temperature;BME280_humidity;BME280_pressure;Samples;Min_cycle;Max_cycle;Signal;HPM_P1;HPM_P2
2022/07/15 00:00:49;;;;;;;0.52;0.50;;;23.20;47.60;;;;;;6197842;28;20022;-67
2022/07/15 00:03:50;;;;;;;0.43;0.43;;;23.20;47.60;;;;;;6198476;28;20023;-67
2022/07/15 00:06:50;;;;;;;0.30;0.30;;;23.20;47.60;;;;;;6197871;28;20051;-67
2022/07/15 00:13:11;;;;;;;0.70;0.50;;;23.20;47.60;;;;;;6198384;28;20030;-67
2022/07/15 00:16:13;;;;;;;0.50;0.40;;;23.20;47.70;;;;;;6198083;28;20026;-67
2022/07/15 00:19:14;;;;;;;0.57;0.50;;;23.20;47.50;;;;;;6197952;28;20034;-67
2022/07/15 00:22:15;;;;;;;0.50;0.50;;;23.20;47.50;;;;;;6197524;28;20025;-67
2022/07/15 00:25:16;;;;;;;0.50;0.50;;;23.20;47.40;;;;;;6184001;28;20492;-67
2022/07/15 00:28:17;;;;;;;0.50;0.40;;;23.20;47.50;;;;;;6198298;28;20037;-67
2022/07/15 00:31:18;;;;;;;0.40;0.40;;;23.20;47.50;;;;;;6197024;28;20393;-67
2022/07/15 00:34:18;;;;;;;0.40;0.40;;;23.20;47.50;;;;;;6197155;28;20022;-67
2022/07/15 00:37:19;;;;;;;0.75;0.40;;;23.20;47.60;;;;;;6197704;28;20392;-67
2022/07/15 00:40:20;;;;;;;0.40;0.40;;;23.20;47.50;;;;;;6196908;28;20150;-67
2022/07/15 00:43:21;;;;;;;0.47;0.47;;;23.20;47.50;;;;;;6197435;28;20109;-67
2022/07/15 00:46:22;;;;;;;1.52;0.40;;;23.20;47.40;;;;;;6196930;28;20022;-67
2022/07/15 00:49:22;;;;;;;0.40;0.30;;;23.20;47.30;;;;;;6197053;28;20053;-67
2022/07/15 00:52:26;;;;;;;0.40;0.40;;;23.30;47.50;;;;;;6196783;28;20547;-68
2022/07/15 00:55:30;;;;;;;0.32;0.30;;;23.20;47.40;;;;;;6196880;28;20026;-67
2022/07/15 00:58:36;;;;;;;0.57;0.40;;;23.20;47.30;;;;;;6196254;28;20030;-67
2022/07/15 01:01:37;;;;;;;0.40;0.40;;;23.20;47.30;;;;;;6196693;28;20026;-67
2022/07/15 01:04:39;;;;;;;0.40;0.40;;;23.20;47.30;;;;;;6196606;28;20389;-67
2022/07/15 01:07:40;;;;;;;0.68;0.40;;;23.20;47.30;;;;;;6189642;28;20042;-67
2022/07/15 01:10:41;;;;;;;0.88;0.40;;;23.20;47.20;;;;;;6196570;28;20037;-67
2022/07/15 01:13:42;;;;;;;0.68;0.50;;;23.20;47.30;;;;;;6196658;28;20366;-67
2022/07/15 01:16:42;;;;;;;0.68;0.40;;;23.30;47.30;;;;;;6196569;28;20045;-67
2022/07/15 01:19:43;;;;;;;0.30;0.30;;;23.30;47.30;;;;;;6196934;28;20058;-67
2022/07/15 01:22:44;;;;;;;0.63;0.50;;;23.20;47.20;;;;;;6196675;28;20065;-67
2022/07/15 01:25:45;;;;;;;0.68;0.30;;;23.20;47.30;;;;;;6196589;28;20066;-67
2022/07/15 01:28:45;;;;;;;0.63;0.40;;;23.20;47.20;;;;;;6196330;28;20089;-66
2022/07/15 01:31:46;;;;;;;0.40;0.30;;;23.30;47.20;;;;;;6195238;28;20036;-67
2022/07/15 01:34:49;;;;;;;0.40;0.40;;;23.30;47.30;;;;;;6195435;28;20061;-67
2022/07/15 01:37:50;;;;;;;0.43;0.40;;;23.30;47.20;;;;;;6196046;28;20042;-67
2022/07/15 01:40:52;;;;;;;0.50;0.50;;;23.30;47.30;;;;;;6196216;28;20023;-67
2022/07/15 01:43:53;;;;;;;0.50;0.40;;;23.30;47.20;;;;;;6195838;28;20023;-67
2022/07/15 01:46:53;;;;;;;0.38;0.35;;;23.30;47.10;;;;;;6195642;28;20025;-67
2022/07/15 01:49:54;;;;;;;0.40;0.30;;;23.30;47.20;;;;;;6195416;28;20100;-67
2022/07/15 01:52:55;;;;;;;1.42;0.50;;;23.30;47.10;;;;;;6195446;28;20031;-67
2022/07/15 01:55:55;;;;;;;0.30;0.30;;;23.20;47.10;;;;;;6195573;28;20096;-67
2022/07/15 01:58:56;;;;;;;0.60;0.40;;;23.30;47.10;;;;;;6195579;28;20504;-67
2022/07/15 02:01:57;;;;;;;0.30;0.30;;;23.30;47.10;;;;;;6195640;28;20049;-67
2022/07/15 02:04:58;;;;;;;0.50;0.50;;;23.30;47.00;;;;;;6195927;28;20053;-67
2022/07/15 02:07:58;;;;;;;0.40;0.40;;;23.20;47.00;;;;;;6194813;28;20048;-67
2022/07/15 02:10:59;;;;;;;0.30;0.30;;;23.30;47.00;;;;;;6194756;28;20041;-67
2022/07/15 02:14:01;;;;;;;0.40;0.40;;;23.30;47.00;;;;;;6195059;28;20493;-67
2022/07/15 02:17:03;;;;;;;0.30;0.30;;;23.30;47.70;;;;;;6195047;28;20497;-68
2022/07/15 02:20:04;;;;;;;0.50;0.50;;;23.30;46.90;;;;;;6195112;28;20061;-67
2022/07/15 02:23:05;;;;;;;0.30;0.30;;;23.30;46.90;;;;;;6195189;28;20034;-67
2022/07/15 02:26:06;;;;;;;0.30;0.30;;;23.30;46.90;;;;;;6194649;28;20028;-67
2022/07/15 02:29:06;;;;;;;1.50;0.40;;;23.30;46.90;;;;;;6194805;28;20433;-67
2022/07/15 02:32:07;;;;;;;0.50;0.50;;;23.30;46.90;;;;;;6194513;28;20121;-67
2022/07/15 02:35:08;;;;;;;0.30;0.30;;;23.30;46.90;;;;;;6194571;28;20359;-67
2022/07/15 02:38:09;;;;;;;0.60;0.60;;;23.30;46.80;;;;;;6194481;28;20108;-67
2022/07/15 02:41:11;;;;;;;0.40;0.40;;;23.30;46.90;;;;;;6194585;28;20046;-67
2022/07/15 02:44:14;;;;;;;0.32;0.30;;;23.30;46.80;;;;;;6194380;28;20026;-67
2022/07/15 02:47:14;;;;;;;0.45;0.40;;;23.30;46.80;;;;;;6194400;28;20034;-67
2022/07/15 02:50:16;;;;;;;1.02;0.50;;;23.30;46.80;;;;;;6193998;28;20409;-67
2022/07/15 02:53:18;;;;;;;0.82;0.30;;;23.30;46.90;;;;;;6193861;28;20057;-67
2022/07/15 02:56:18;;;;;;;0.43;0.43;;;23.30;46.80;;;;;;6193742;28;20105;-66
2022/07/15 02:59:19;;;;;;;0.40;0.30;;;23.30;46.80;;;;;;6194657;28;20022;-67
2022/07/15 03:02:20;;;;;;;0.52;0.30;;;23.20;46.80;;;;;;6194393;28;20168;-67
2022/07/15 03:05:21;;;;;;;0.50;0.40;;;23.30;46.70;;;;;;6194623;28;20030;-68
2022/07/15 03:08:21;;;;;;;0.20;0.20;;;23.30;46.80;;;;;;6194227;28;20033;-67
2022/07/15 03:11:22;;;;;;;0.50;0.50;;;23.30;46.70;;;;;;6194463;28;20030;-67
2022/07/15 03:14:23;;;;;;;0.60;0.40;;;23.30;46.70;;;;;;6194007;28;20026;-67
2022/07/15 03:17:23;;;;;;;0.30;0.30;;;23.30;46.70;;;;;;6194580;28;20025;-67
2022/07/15 03:20:24;;;;;;;0.77;0.50;;;23.30;46.80;;;;;;6193567;28;20389;-67
2022/07/15 03:23:25;;;;;;;0.35;0.35;;;23.30;46.70;;;;;;6197271;28;20074;-68
2022/07/15 03:26:25;;;;;;;0.65;0.40;;;23.30;47.20;;;;;;6198511;28;20385;-67
2022/07/15 03:29:28;;;;;;;0.90;0.40;;;23.30;46.70;;;;;;6199215;28;20030;-68
2022/07/15 03:32:29;;;;;;;0.98;0.40;;;23.30;46.70;;;;;;6198678;28;20397;-67
2022/07/15 03:35:30;;;;;;;0.50;0.43;;;23.30;46.60;;;;;;6199153;28;20030;-68
2022/07/15 03:38:31;;;;;;;0.60;0.30;;;23.30;46.60;;;;;;6198615;28;20508;-68
2022/07/15 03:41:31;;;;;;;3.30;0.50;;;23.30;46.50;;;;;;6198266;28;20025;-68
2022/07/15 03:44:32;;;;;;;0.60;0.40;;;23.30;46.60;;;;;;6198836;28;20031;-68
2022/07/15 03:47:33;;;;;;;0.38;0.35;;;23.30;46.60;;;;;;6198517;28;20034;-68
2022/07/15 03:50:34;;;;;;;0.80;0.50;;;23.30;46.60;;;;;;6198121;28;20097;-67
2022/07/15 03:53:35;;;;;;;0.43;0.43;;;23.30;46.50;;;;;;6198532;28;20026;-68
2022/07/15 03:56:36;;;;;;;0.60;0.50;;;23.30;46.50;;;;;;6197964;28;20497;-68
2022/07/15 03:59:37;;;;;;;0.50;0.43;;;23.30;46.50;;;;;;6198891;28;20018;-67
2022/07/15 04:02:38;;;;;;;0.82;0.60;;;23.30;46.50;;;;;;6198226;28;20054;-67
2022/07/15 04:05:39;;;;;;;0.45;0.45;;;23.30;46.60;;;;;;6198488;28;20033;-67
2022/07/15 04:08:39;;;;;;;0.50;0.47;;;23.30;46.50;;;;;;6197764;28;20030;-67
2022/07/15 04:11:43;;;;;;;0.60;0.40;;;23.30;46.40;;;;;;6197674;28;20058;-67
2022/07/15 04:14:43;;;;;;;1.00;0.50;;;23.30;46.40;;;;;;6198097;28;20474;-68
2022/07/15 04:17:44;;;;;;;0.40;0.40;;;23.30;46.40;;;;;;6198190;28;20033;-67
2022/07/15 04:20:44;;;;;;;0.50;0.50;;;23.30;46.40;;;;;;6197951;28;20401;-67
2022/07/15 04:23:45;;;;;;;0.45;0.40;;;23.30;46.40;;;;;;6197959;28;20102;-67
2022/07/15 04:26:46;;;;;;;0.80;0.60;;;23.30;46.40;;;;;;6197541;28;20076;-67
2022/07/15 04:29:46;;;;;;;0.70;0.60;;;23.30;46.40;;;;;;6197518;28;20410;-67
2022/07/15 04:32:47;;;;;;;0.82;0.70;;;23.30;46.40;;;;;;6197317;28;20389;-67
2022/07/15 04:35:48;;;;;;;0.85;0.60;;;23.30;46.50;;;;;;6197448;28;20437;-67
2022/07/15 04:38:50;;;;;;;1.10;0.68;;;23.30;46.40;;;;;;6197922;28;20085;-67
2022/07/15 04:41:51;;;;;;;0.68;0.68;;;23.30;46.40;;;;;;6197007;28;20041;-67
2022/07/15 04:44:52;;;;;;;1.45;0.63;;;23.30;46.30;;;;;;6197660;28;20069;-67
2022/07/15 04:47:53;;;;;;;0.90;0.63;;;23.30;46.30;;;;;;6197429;28;20335;-67
2022/07/15 04:50:55;;;;;;;0.80;0.70;;;23.30;46.40;;;;;;6197122;28;20077;-67
2022/07/15 04:53:56;;;;;;;1.58;0.60;;;23.30;46.40;;;;;;6196889;28;20040;-67
2022/07/15 04:56:56;;;;;;;0.63;0.57;;;23.30;46.30;;;;;;6197103;28;20074;-67
2022/07/15 05:00:44;;;;;;;1.00;0.60;;;23.30;46.30;;;;;;6196827;28;20022;-67
2022/07/15 05:03:44;;;;;;;0.80;0.60;;;23.30;46.30;;;;;;6196349;28;20072;-67
2022/07/15 05:06:45;;;;;;;0.80;0.70;;;23.30;46.30;;;;;;6196502;28;20034;-68
2022/07/15 05:09:46;;;;;;;1.30;0.80;;;23.30;46.30;;;;;;6196937;28;20149;-67
2022/07/15 05:12:47;;;;;;;1.08;0.60;;;23.30;46.30;;;;;;6196834;28;20034;-67
2022/07/15 05:15:47;;;;;;;0.60;0.60;;;23.30;46.30;;;;;;6196458;28;20517;-67
2022/07/15 05:18:48;;;;;;;0.60;0.60;;;23.30;46.30;;;;;;6196346;28;20084;-66
2022/07/15 05:21:49;;;;;;;1.40;0.75;;;23.30;46.20;;;;;;6196188;28;20032;-67
2022/07/15 05:24:49;;;;;;;0.52;0.52;;;23.30;46.20;;;;;;6186269;28;20442;-67
2022/07/15 05:27:51;;;;;;;0.82;0.70;;;23.30;46.20;;;;;;6192988;28;20532;-67
2022/07/15 05:30:52;;;;;;;0.57;0.52;;;23.30;46.30;;;;;;6195873;28;20030;-67
2022/07/15 05:33:53;;;;;;;0.80;0.75;;;23.30;46.20;;;;;;6196061;28;20027;-67
2022/07/15 05:36:53;;;;;;;1.05;0.90;;;23.30;46.20;;;;;;6195783;28;20068;-67
2022/07/15 05:39:54;;;;;;;0.63;0.63;;;23.30;46.20;;;;;;6196352;28;20457;-67
2022/07/15 05:42:55;;;;;;;0.70;0.65;;;23.30;46.10;;;;;;6195625;28;20380;-67
2022/07/15 05:45:55;;;;;;;1.20;0.80;;;23.30;46.10;;;;;;6195578;28;20024;-67
2022/07/15 05:48:56;;;;;;;0.90;0.80;;;23.30;46.10;;;;;;6195497;28;20058;-66
2022/07/15 05:51:56;;;;;;;0.98;0.65;;;23.40;46.80;;;;;;6195484;28;20060;-67
2022/07/15 05:54:57;;;;;;;0.70;0.70;;;23.30;46.50;;;;;;6195500;28;20058;-66
2022/07/15 05:57:58;;;;;;;0.75;0.70;;;23.10;47.20;;;;;;6177974;28;20563;-67
2022/07/15 06:00:58;;;;;;;1.10;0.63;;;23.00;47.40;;;;;;6196045;28;20054;-67
2022/07/15 06:03:59;;;;;;;0.73;0.65;;;22.90;47.80;;;;;;6197668;28;20092;-67
2022/07/15 06:07:00;;;;;;;0.93;0.70;;;22.80;48.00;;;;;;6197031;28;20019;-67
2022/07/15 06:10:00;;;;;;;1.35;0.93;;;22.80;48.50;;;;;;6197446;28;20027;-66
2022/07/15 06:13:01;;;;;;;0.70;0.70;;;22.80;48.80;;;;;;6196889;28;20038;-66
2022/07/15 06:16:01;;;;;;;1.00;0.77;;;22.70;49.20;;;;;;6197361;28;20029;-66
2022/07/15 06:19:02;;;;;;;0.77;0.77;;;22.70;49.50;;;;;;6197426;28;20060;-67
2022/07/15 06:22:03;;;;;;;1.35;0.95;;;22.70;49.70;;;;;;6197272;28;20023;-67
2022/07/15 06:25:04;;;;;;;0.80;0.80;;;22.70;49.90;;;;;;6188465;28;20429;-67
2022/07/15 06:28:05;;;;;;;0.60;0.60;;;22.60;50.20;;;;;;6197068;28;20018;-67
2022/07/15 06:31:06;;;;;;;0.80;0.73;;;22.60;50.10;;;;;;6186379;28;20042;-68
2022/07/15 06:34:06;;;;;;;0.73;0.70;;;22.60;50.20;;;;;;6195133;28;20134;-67
2022/07/15 06:37:07;;;;;;;1.00;0.90;;;22.60;50.10;;;;;;6190008;28;20057;-67
2022/07/15 06:40:09;;;;;;;0.90;0.65;;;22.60;50.20;;;;;;6196294;28;20025;-67
2022/07/15 06:43:10;;;;;;;0.80;0.80;;;22.60;50.10;;;;;;6177824;28;20039;-67
2022/07/15 06:46:12;;;;;;;1.58;0.50;;;22.60;50.20;;;;;;6195565;28;20033;-67
2022/07/15 06:49:12;;;;;;;0.75;0.75;;;22.60;50.70;;;;;;6194356;28;20076;-68
2022/07/15 06:52:13;;;;;;;0.85;0.80;;;22.60;50.80;;;;;;6195484;28;20022;-67
2022/07/15 06:55:13;;;;;;;0.73;0.70;;;22.50;50.70;;;;;;6194995;28;20381;-67
2022/07/15 06:58:14;;;;;;;1.98;1.00;;;22.50;51.00;;;;;;6194845;28;20022;-68
2022/07/15 07:01:15;;;;;;;2.45;1.10;;;22.60;51.60;;;;;;6193086;28;20030;-67
2022/07/15 07:04:15;;;;;;;5.40;1.65;;;22.50;51.30;;;;;;6193525;28;20031;-67
2022/07/15 07:07:16;;;;;;;5.93;1.10;;;22.50;50.60;;;;;;6193654;28;20485;-68
2022/07/15 07:10:17;;;;;;;4.38;1.20;;;22.40;50.40;;;;;;6193674;28;20030;-67
2022/07/15 07:13:17;;;;;;;6.63;1.30;;;22.40;50.10;;;;;;6193565;28;20031;-68
2022/07/15 07:16:18;;;;;;;4.50;1.20;;;22.40;49.50;;;;;;6193251;28;20023;-68
2022/07/15 07:19:19;;;;;;;8.82;1.58;;;22.40;49.60;;;;;;6193474;28;20332;-67
2022/07/15 07:22:20;;;;;;;4.18;1.27;;;22.40;49.20;;;;;;6194022;28;20710;-68
2022/07/15 07:25:20;;;;;;;5.50;1.30;;;22.40;49.40;;;;;;6179462;28;20027;-67
2022/07/15 07:28:21;;;;;;;4.80;1.92;;;22.30;49.00;;;;;;6178052;28;20485;-68
2022/07/15 07:31:25;;;;;;;5.50;1.38;;;22.30;49.00;;;;;;6193210;28;20090;-68
2022/07/15 07:34:26;;;;;;;5.82;1.42;;;22.30;49.10;;;;;;6190339;28;20484;-67
2022/07/15 07:37:27;;;;;;;5.57;1.58;;;22.30;49.00;;;;;;6192948;28;20038;-68
2022/07/15 07:40:28;;;;;;;4.25;1.30;;;22.30;48.90;;;;;;6182299;28;20031;-67
2022/07/15 07:43:29;;;;;;;4.82;1.33;;;22.30;48.90;;;;;;6193291;28;20036;-68
2022/07/15 07:46:30;;;;;;;6.57;1.60;;;22.30;48.80;;;;;;6193538;28;20076;-68
2022/07/15 07:49:31;;;;;;;6.05;1.50;;;22.30;48.50;;;;;;6192965;28;20074;-67
2022/07/15 07:52:32;;;;;;;7.80;1.65;;;22.20;48.80;;;;;;6194193;28;20034;-68
2022/07/15 07:55:32;;;;;;;5.55;1.20;;;22.20;48.70;;;;;;6193424;28;20102;-67
2022/07/15 07:58:33;;;;;;;4.22;1.33;;;22.20;48.50;;;;;;6192904;28;20041;-67
2022/07/15 08:01:34;;;;;;;8.40;1.70;;;22.20;48.80;;;;;;6193646;28;20161;-67
2022/07/15 08:04:35;;;;;;;3.72;1.15;;;22.20;48.40;;;;;;6192879;28;20504;-67
2022/07/15 08:07:36;;;;;;;4.32;0.98;;;22.20;48.60;;;;;;6188807;28;20023;-67
2022/07/15 08:10:36;;;;;;;2.78;1.00;;;22.20;48.00;;;;;;6194085;28;20493;-67
2022/07/15 08:13:38;;;;;;;6.13;1.13;;;22.30;48.20;;;;;;6197812;28;20022;-67
2022/07/15 08:16:42;;;;;;;4.75;1.75;;;22.20;47.60;;;;;;6184262;28;20041;-67
2022/07/15 08:19:42;;;;;;;5.47;1.65;;;22.30;47.30;;;;;;6189191;28;20030;-68
2022/07/15 08:22:43;;;;;;;3.88;1.45;;;22.20;47.00;;;;;;6196458;28;20053;-67
2022/07/15 08:25:43;;;;;;;13.40;1.73;;;22.30;47.00;;;;;;6173316;28;20069;-67
2022/07/15 08:28:44;;;;;;;10.55;1.95;;;22.30;48.90;;;;;;6194416;28;20030;-67
2022/07/15 08:31:46;;;;;;;5.97;1.52;;;22.30;49.00;;;;;;6195661;28;20039;-67
2022/07/15 08:34:47;;;;;;;5.93;1.23;;;22.40;49.20;;;;;;6196690;28;20061;-68
2022/07/15 08:37:47;;;;;;;3.78;1.15;;;22.40;48.60;;;;;;6196285;28;20078;-67
2022/07/15 08:40:49;;;;;;;4.22;1.52;;;22.40;48.10;;;;;;6195365;28;20057;-68
2022/07/15 08:43:49;;;;;;;2.28;1.10;;;22.40;48.00;;;;;;6195844;28;20018;-68
2022/07/15 08:46:52;;;;;;;2.90;1.10;;;22.50;47.80;;;;;;6196772;28;20037;-68
2022/07/15 08:49:59;;;;;;;5.20;1.30;;;22.50;47.40;;;;;;6183632;28;20527;-68
2022/07/15 08:53:00;;;;;;;5.10;1.40;;;22.50;47.70;;;;;;6196343;28;20045;-68
2022/07/15 08:56:02;;;;;;;3.72;1.10;;;22.40;48.00;;;;;;6196368;28;20101;-68
2022/07/15 08:59:07;;;;;;;3.28;0.90;;;22.40;48.50;;;;;;6183070;28;20393;-68
2022/07/15 09:02:10;;;;;;;3.28;0.98;;;22.40;48.60;;;;;;6178679;28;20031;-68
2022/07/15 09:05:33;;;;;;;2.17;1.00;;;22.40;48.80;;;;;;6196305;28;20066;-68
2022/07/15 09:08:34;;;;;;;3.03;1.10;;;22.40;49.20;;;;;;6196006;28;20061;-68
2022/07/15 09:11:35;;;;;;;3.42;1.10;;;22.40;48.60;;;;;;6196337;28;20492;-68
2022/07/15 09:14:38;;;;;;;3.92;1.00;;;22.40;48.90;;;;;;6196276;28;20059;-68
2022/07/15 09:17:38;;;;;;;4.90;1.20;;;22.40;48.50;;;;;;6196514;28;20408;-68
2022/07/15 09:20:40;;;;;;;3.67;1.20;;;22.40;48.20;;;;;;6195283;28;20030;-68
2022/07/15 09:23:41;;;;;;;7.03;0.95;;;22.40;48.10;;;;;;6195717;28;20374;-68
2022/07/15 09:26:42;;;;;;;2.40;0.88;;;22.40;47.90;;;;;;6196243;28;20034;-68
2022/07/15 09:36:27;;;;;;;6.85;1.52;;;22.40;47.80;;;;;;6196846;28;20113;-68
2022/07/15 09:39:28;;;;;;;3.75;1.40;;;22.40;47.30;;;;;;6195734;28;20458;-68
2022/07/15 09:42:32;;;;;;;5.03;1.15;;;22.40;46.90;;;;;;6195879;28;20022;-68
2022/07/15 09:45:33;;;;;;;5.93;1.20;;;22.40;47.00;;;;;;6194709;28;20066;-68
2022/07/15 09:48:40;;;;;;;3.33;1.50;;;22.40;47.30;;;;;;6195467;28;20425;-68
2022/07/15 09:51:50;;;;;;;7.90;1.55;;;22.40;47.20;;;;;;6195151;28;20038;-68
2022/07/15 09:54:51;;;;;;;3.78;1.30;;;22.40;47.50;;;;;;6194922;28;20059;-68
2022/07/15 09:57:52;;;;;;;4.13;1.10;;;22.40;47.10;;;;;;6195178;28;20397;-67
2022/07/15 10:00:53;;;;;;;3.38;1.00;;;22.40;47.20;;;;;;6194590;28;20035;-68
2022/07/15 10:03:54;;;;;;;3.90;1.30;;;22.40;47.10;;;;;;6194243;28;20026;-68
2022/07/15 10:06:56;;;;;;;4.97;1.35;;;22.40;46.50;;;;;;6194328;28;20032;-68
2022/07/15 10:09:58;;;;;;;4.10;1.23;;;22.50;46.90;;;;;;6194952;28;20018;-68
2022/07/15 10:13:20;;;;;;;2.83;1.20;;;22.40;46.70;;;;;;6195028;28;20465;-67
2022/07/15 10:16:20;;;;;;;7.60;1.20;;;22.40;46.50;;;;;;6194627;28;20445;-68
2022/07/15 10:19:48;;;;;;;3.05;1.30;;;22.40;46.40;;;;;;6195008;28;20030;-68
2022/07/15 10:23:07;;;;;;;4.05;1.23;;;22.40;46.90;;;;;;6192752;28;20129;-68
2022/07/15 10:26:38;;;;;;;3.67;1.08;;;22.50;47.20;;;;;;6194560;28;20026;-68
2022/07/15 10:29:39;;;;;;;5.47;1.00;;;22.50;47.30;;;;;;6194349;28;20351;-68
2022/07/15 10:33:06;;;;;;;4.85;1.58;;;22.40;47.40;;;;;;6194106;28;20046;-68
2022/07/15 10:36:07;;;;;;;2.42;0.95;;;22.40;47.40;;;;;;6193778;28;20025;-67
2022/07/15 10:39:08;;;;;;;2.83;1.05;;;22.50;47.80;;;;;;6168608;28;20026;-68
2022/07/15 10:42:09;;;;;;;2.63;1.00;;;22.40;48.20;;;;;;6194160;28;20504;-68
2022/07/15 10:45:10;;;;;;;1.80;0.80;;;22.40;48.60;;;;;;6194537;28;20513;-68
2022/07/15 10:48:30;;;;;;;2.33;1.10;;;22.40;48.90;;;;;;6192269;28;20085;-69
2022/07/15 10:51:36;;;;;;;2.78;0.98;;;22.40;49.00;;;;;;6193753;28;20034;-68
2022/07/15 10:54:40;;;;;;;2.88;0.77;;;22.40;49.00;;;;;;6194151;28;20038;-68
2022/07/15 10:57:44;;;;;;;4.15;1.10;;;22.40;49.10;;;;;;6193807;28;20029;-67
2022/07/15 11:00:46;;;;;;;2.85;1.10;;;22.40;50.00;;;;;;6193997;28;20056;-68
2022/07/15 11:04:10;;;;;;;3.22;1.15;;;22.40;49.60;;;;;;6193631;28;20023;-68
2022/07/15 11:07:13;;;;;;;1.98;0.90;;;22.40;49.60;;;;;;6193419;28;20151;-68
2022/07/15 11:10:15;;;;;;;1.77;0.90;;;22.40;50.40;;;;;;6194088;28;20026;-68
2022/07/15 11:13:33;;;;;;;2.75;1.10;;;22.40;49.70;;;;;;6193969;28;20041;-68
2022/07/15 11:16:33;;;;;;;1.88;0.88;;;22.40;49.80;;;;;;6194486;28;20044;-68
2022/07/15 11:19:35;;;;;;;2.08;0.90;;;22.40;49.90;;;;;;6194125;28;20460;-68
2022/07/15 11:22:38;;;;;;;1.58;0.88;;;22.40;50.00;;;;;;6184646;28;20030;-68
2022/07/15 11:25:40;;;;;;;1.77;0.80;;;22.40;50.10;;;;;;6192655;28;20042;-68
2022/07/15 11:28:51;;;;;;;2.75;1.23;;;22.40;50.20;;;;;;6194296;28;20027;-68
2022/07/15 11:31:52;;;;;;;1.70;0.93;;;22.40;50.20;;;;;;6193525;28;20462;-69
2022/07/15 11:34:55;;;;;;;1.98;0.70;;;22.40;50.20;;;;;;6194091;28;20026;-68
2022/07/15 11:38:03;;;;;;;3.25;1.20;;;22.40;50.20;;;;;;6193741;28;20041;-69
2022/07/15 11:44:31;;;;;;;2.53;1.20;;;22.40;48.90;;;;;;6196545;28;20057;-69
2022/07/15 11:47:32;;;;;;;3.10;0.98;;;22.40;48.30;;;;;;6198350;28;20080;-68
2022/07/15 11:50:36;;;;;;;3.88;1.30;;;22.40;48.50;;;;;;6198011;28;20047;-69
2022/07/15 11:53:42;;;;;;;1.93;0.93;;;22.50;47.50;;;;;;6198479;28;20134;-67
2022/07/15 11:56:43;;;;;;;4.72;1.20;;;22.40;47.40;;;;;;6198559;28;20026;-68
2022/07/15 11:59:57;;;;;;;4.47;0.70;;;22.50;47.70;;;;;;6198176;28;20027;-68
2022/07/15 12:03:08;;;;;;;3.23;1.07;;;22.50;47.30;;;;;;6198100;28;20312;-68
2022/07/15 12:06:22;;;;;;;4.47;1.05;;;22.50;47.70;;;;;;6197783;28;20022;-69
2022/07/15 12:09:23;;;;;;;2.03;1.10;;;22.50;47.90;;;;;;6197041;28;20109;-68
2022/07/15 12:12:23;;;;;;;2.80;1.00;;;22.50;47.80;;;;;;6198041;28;20440;-68
2022/07/15 12:15:24;;;;;;;4.68;1.33;;;22.50;48.00;;;;;;6197964;28;20081;-68
2022/07/15 12:18:25;;;;;;;3.95;1.30;;;22.50;47.50;;;;;;6197779;28;20141;-68
2022/07/15 12:21:26;;;;;;;3.75;1.00;;;22.50;47.70;;;;;;6198118;28;20032;-68
2022/07/15 12:24:39;;;;;;;3.40;0.90;;;22.50;47.60;;;;;;6197838;28;20042;-68
2022/07/15 12:27:40;;;;;;;3.15;0.98;;;22.50;47.50;;;;;;6197669;28;20389;-68
2022/07/15 12:30:45;;;;;;;2.80;0.77;;;22.50;47.60;;;;;;6197427;28;20030;-68
2022/07/15 12:33:50;;;;;;;1.58;0.80;;;22.40;47.30;;;;;;6197873;28;20493;-68
2022/07/15 12:37:01;;;;;;;2.03;0.90;;;22.50;47.30;;;;;;6197470;28;20553;-68
2022/07/15 12:40:01;;;;;;;2.33;0.80;;;22.50;47.50;;;;;;6197275;28;20507;-68
2022/07/15 12:43:02;;;;;;;2.00;0.85;;;22.50;47.70;;;;;;6197108;28;20023;-68
2022/07/15 12:46:03;;;;;;;3.25;0.98;;;22.50;47.70;;;;;;6197223;28;20026;-68
2022/07/15 12:49:03;;;;;;;1.33;0.75;;;22.50;47.60;;;;;;6197113;28;20512;-68
2022/07/15 12:52:13;;;;;;;3.67;1.00;;;22.40;48.90;;;;;;6196998;28;20437;-68
2022/07/15 12:55:19;;;;;;;2.85;0.90;;;22.40;49.00;;;;;;6192234;28;20068;-68
2022/07/15 12:58:27;;;;;;;2.00;0.75;;;22.40;49.10;;;;;;6197217;28;20481;-68
2022/07/15 13:01:30;;;;;;;2.10;0.98;;;22.40;49.80;;;;;;6197268;28;20381;-68
2022/07/15 13:04:31;;;;;;;4.93;1.17;;;22.40;49.00;;;;;;6197050;28;20053;-68
2022/07/15 13:07:31;;;;;;;2.65;0.88;;;22.40;48.50;;;;;;6196396;28;20030;-68
2022/07/15 13:10:32;;;;;;;2.95;0.85;;;22.40;47.50;;;;;;6195864;28;20030;-68
2022/07/15 13:13:37;;;;;;;1.10;0.70;;;22.40;49.60;;;;;;6196440;28;20511;-69
2022/07/15 13:16:37;;;;;;;1.67;0.88;;;22.40;48.40;;;;;;6196178;28;20018;-68
2022/07/15 13:19:38;;;;;;;2.45;0.90;;;22.40;49.00;;;;;;6196491;28;20026;-68
2022/07/15 13:22:39;;;;;;;2.05;0.90;;;22.40;48.80;;;;;;6195425;28;20233;-68
2022/07/15 13:25:41;;;;;;;2.33;0.70;;;22.40;47.50;;;;;;6190118;28;20034;-68
2022/07/15 13:28:41;;;;;;;2.35;0.88;;;22.40;47.20;;;;;;6195512;28;20019;-68
2022/07/15 13:31:42;;;;;;;3.83;0.93;;;22.40;47.40;;;;;;6194551;28;20536;-68
2022/07/15 13:34:43;;;;;;;1.90;0.95;;;22.40;48.60;;;;;;6194227;28;20033;-68
2022/07/15 13:37:43;;;;;;;0.85;0.60;;;22.40;49.30;;;;;;6194776;28;20027;-68
2022/07/15 13:40:44;;;;;;;3.38;1.00;;;22.40;49.50;;;;;;6194751;28;20023;-67
2022/07/15 13:43:45;;;;;;;1.67;0.88;;;22.40;49.80;;;;;;6195168;28;20019;-67
2022/07/15 13:46:45;;;;;;;1.90;0.70;;;22.40;50.10;;;;;;6194478;28;20390;-67
2022/07/15 13:53:06;;;;;;;1.58;0.80;;;22.40;50.40;;;;;;6194429;28;20405;-68
2022/07/15 13:56:06;;;;;;;2.00;1.00;;;22.40;50.50;;;;;;6194209;28;20033;-68
2022/07/15 13:59:08;;;;;;;1.50;0.70;;;22.40;50.60;;;;;;6177508;28;20057;-68
2022/07/15 14:02:09;;;;;;;1.90;0.80;;;22.40;50.60;;;;;;6194340;28;20049;-68
2022/07/15 14:05:11;;;;;;;1.58;0.80;;;22.40;50.70;;;;;;6190773;28;20359;-69
2022/07/15 14:08:12;;;;;;;3.58;0.77;;;22.40;50.80;;;;;;6193710;28;20026;-68
2022/07/15 14:11:13;;;;;;;1.77;0.80;;;22.40;50.80;;;;;;6194518;28;20031;-69
2022/07/15 14:14:14;;;;;;;2.03;0.80;;;22.40;50.90;;;;;;6193720;28;20057;-68
2022/07/15 14:17:15;;;;;;;0.70;0.60;;;22.40;50.90;;;;;;6194085;28;20030;-68
2022/07/15 14:20:16;;;;;;;1.33;0.65;;;22.40;50.90;;;;;;6194394;28;20018;-68
2022/07/15 14:23:17;;;;;;;1.60;1.02;;;22.40;51.00;;;;;;6193659;28;20038;-68
2022/07/15 14:26:18;;;;;;;1.25;0.90;;;22.40;51.10;;;;;;6192425;28;20060;-68
2022/07/15 14:29:18;;;;;;;1.38;0.70;;;22.40;51.10;;;;;;6185146;28;20054;-68
2022/07/15 14:32:19;;;;;;;1.70;0.88;;;22.40;51.20;;;;;;6193447;28;20030;-67
2022/07/15 14:35:21;;;;;;;1.40;1.00;;;22.40;51.20;;;;;;6193382;28;20034;-68
2022/07/15 14:38:22;;;;;;;1.02;0.80;;;22.40;51.20;;;;;;6193938;28;20022;-68
2022/07/15 14:41:23;;;;;;;0.80;0.70;;;22.40;51.30;;;;;;6194062;28;20129;-68
2022/07/15 14:44:23;;;;;;;1.52;0.68;;;22.40;51.30;;;;;;6192548;28;20066;-68
2022/07/15 14:47:24;;;;;;;1.45;0.80;;;22.40;51.30;;;;;;6193479;28;20053;-68
2022/07/15 14:50:25;;;;;;;0.80;0.70;;;22.40;50.30;;;;;;6192920;28;20272;-68
2022/07/15 14:53:25;;;;;;;0.90;0.70;;;22.40;49.20;;;;;;6193717;28;20026;-68
2022/07/15 14:56:26;;;;;;;2.05;1.00;;;22.50;48.60;;;;;;6192786;28;20381;-68
2022/07/15 14:59:27;;;;;;;1.10;0.70;;;22.60;48.30;;;;;;6184337;28;20085;-68
2022/07/15 15:02:27;;;;;;;1.45;0.82;;;22.70;47.90;;;;;;6192318;28;20030;-68
2022/07/15 15:05:28;;;;;;;0.60;0.55;;;22.90;47.60;;;;;;6178344;28;20014;-68
2022/07/15 15:08:28;;;;;;;2.15;1.00;;;22.90;47.40;;;;;;6186972;28;20431;-69
2022/07/15 15:11:29;;;;;;;1.27;0.82;;;23.00;47.30;;;;;;6185277;28;20165;-69
2022/07/15 15:14:30;;;;;;;1.25;0.85;;;23.00;47.20;;;;;;6184402;28;20034;-69
2022/07/15 15:17:31;;;;;;;1.67;0.50;;;23.00;47.00;;;;;;6190414;28;20186;-69
2022/07/15 15:20:31;;;;;;;0.82;0.70;;;23.00;47.00;;;;;;6193195;28;20026;-69
2022/07/15 15:23:32;;;;;;;1.83;0.80;;;23.10;46.90;;;;;;6190946;28;20125;-69
2022/07/15 15:26:33;;;;;;;1.50;0.90;;;23.10;46.80;;;;;;6179118;28;20102;-69
2022/07/15 15:29:33;;;;;;;1.13;0.82;;;23.10;46.80;;;;;;6166804;28;20038;-70
2022/07/15 15:32:34;;;;;;;0.98;0.60;;;23.10;46.70;;;;;;6176935;28;20041;-69
2022/07/15 15:35:35;;;;;;;1.33;0.95;;;23.10;46.50;;;;;;6192231;28;20038;-69
2022/07/15 15:38:35;;;;;;;1.50;0.82;;;23.20;46.60;;;;;;6175317;28;20399;-69
2022/07/15 15:41:36;;;;;;;1.08;0.70;;;23.20;46.50;;;;;;6174081;28;20073;-69
2022/07/15 15:44:37;;;;;;;1.58;0.93;;;23.20;46.30;;;;;;6191884;28;20033;-70
2022/07/15 15:47:37;;;;;;;2.05;0.60;;;23.20;46.30;;;;;;6193450;28;20034;-70
2022/07/15 15:50:38;;;;;;;1.10;0.80;;;23.20;46.20;;;;;;6191395;28;20042;-69
2022/07/15 15:53:39;;;;;;;3.20;0.90;;;23.20;46.00;;;;;;6192424;28;20058;-70
2022/07/15 15:56:39;;;;;;;1.65;0.70;;;23.20;46.70;;;;;;6192341;28;20291;-70
2022/07/15 15:59:40;;;;;;;2.10;0.90;;;23.20;46.00;;;;;;6192816;28;20022;-69
2022/07/15 16:02:41;;;;;;;1.10;0.80;;;23.20;46.00;;;;;;6192678;28;20032;-68
2022/07/15 16:05:42;;;;;;;2.08;0.70;;;23.20;46.00;;;;;;6191998;28;20393;-67